createdAt,value
2017-11-14T00:00:38.746Z,30.83
2017-11-14T00:03:04.837Z,29.87
2017-11-14T00:05:30.900Z,22.90
2017-11-14T00:07:57.294Z,23.20
2017-11-14T00:10:23.956Z,19.23
2017-11-14T00:12:50.062Z,21.57
2017-11-14T00:15:16.180Z,21.77
2017-11-14T00:17:42.286Z,24.70
2017-11-14T00:20:08.756Z,20.20
2017-11-14T00:22:35.126Z,20.83
2017-11-14T00:25:01.256Z,18.20
2017-11-14T00:27:27.361Z,16.80
2017-11-14T00:29:53.464Z,15.13
2017-11-14T00:32:20.211Z,14.97
2017-11-14T00:34:46.368Z,24.03
2017-11-14T00:37:12.476Z,13.57
2017-11-14T00:39:38.570Z,14.23
2017-11-14T00:42:04.764Z,11.47
2017-11-14T00:44:31.242Z,12.23
2017-11-14T00:46:57.486Z,12.87
2017-11-14T00:49:23.693Z,12.63
2017-11-14T00:51:49.850Z,11.10
2017-11-14T00:54:16.000Z,12.43
2017-11-14T00:56:42.553Z,10.67
2017-11-14T00:59:08.661Z,14.27
2017-11-14T01:01:34.766Z,13.40
2017-11-14T01:04:01.802Z,12.80
2017-11-14T01:06:27.923Z,10.20
2017-11-14T01:08:54.602Z,10.57
2017-11-14T01:11:20.799Z,9.30
2017-11-14T01:13:46.966Z,11.43
2017-11-14T01:16:13.084Z,13.10
2017-11-14T01:18:39.213Z,16.03
2017-11-14T01:21:05.814Z,18.40
2017-11-14T01:23:31.952Z,22.30
2017-11-14T01:25:58.696Z,22.67
2017-11-14T01:28:24.816Z,17.93
2017-11-14T01:30:50.944Z,16.00
2017-11-14T01:33:17.449Z,18.80
2017-11-14T01:35:43.746Z,14.00
2017-11-14T01:38:09.883Z,15.07
2017-11-14T01:40:36.171Z,11.60
2017-11-14T01:43:02.276Z,11.50
2017-11-14T01:45:29.589Z,13.67
2017-11-14T01:47:55.707Z,8.90
2017-11-14T01:50:21.847Z,10.90
2017-11-14T01:52:48.098Z,8.23
2017-11-14T01:55:14.588Z,9.00
2017-11-14T01:57:41.166Z,8.60
2017-11-14T02:00:07.432Z,8.33
2017-11-14T02:02:33.588Z,9.00
2017-11-14T02:04:59.857Z,10.53
2017-11-14T02:07:26.020Z,7.77
2017-11-14T02:09:52.101Z,5.97
2017-11-14T02:12:18.268Z,8.43
2017-11-14T02:14:44.375Z,8.70
2017-11-14T02:17:10.531Z,8.07
2017-11-14T02:19:36.684Z,10.27
2017-11-14T02:22:03.199Z,8.60
2017-11-14T02:24:29.263Z,8.10
2017-11-14T02:27:00.308Z,8.10
2017-11-14T02:29:26.379Z,9.47
2017-11-14T02:31:52.496Z,15.10
2017-11-14T02:34:18.942Z,18.80
2017-11-14T02:36:45.260Z,10.00
2017-11-14T02:39:11.628Z,12.53
2017-11-14T02:41:37.744Z,10.93
2017-11-14T02:44:03.816Z,14.43
2017-11-14T02:46:30.275Z,11.30
2017-11-14T02:48:56.728Z,9.97
2017-11-14T02:51:22.905Z,12.17
2017-11-14T02:53:48.979Z,11.40
2017-11-14T02:56:15.142Z,11.97
2017-11-14T02:58:41.728Z,13.37
2017-11-14T03:01:07.956Z,12.27
2017-11-14T03:03:34.518Z,15.17
2017-11-14T03:06:00.677Z,16.97
2017-11-14T03:08:26.816Z,15.03
2017-11-14T03:10:53.363Z,16.97
2017-11-14T03:13:19.495Z,12.77
2017-11-14T03:15:45.702Z,13.80
2017-11-14T03:18:11.967Z,12.87
2017-11-14T03:20:38.136Z,14.30
2017-11-14T03:23:04.716Z,10.33
2017-11-14T03:25:30.874Z,13.97
2017-11-14T03:27:56.989Z,10.40
2017-11-14T03:30:23.081Z,17.63
2017-11-14T03:32:49.147Z,10.60
2017-11-14T03:35:15.559Z,10.80
2017-11-14T03:37:41.608Z,14.07
2017-11-14T03:40:07.676Z,10.07
2017-11-14T03:42:34.199Z,11.17
2017-11-14T03:45:00.305Z,10.40
2017-11-14T03:47:26.387Z,7.77
2017-11-14T03:49:52.488Z,10.20
2017-11-14T03:52:18.560Z,8.17
2017-11-14T03:54:44.972Z,9.23
2017-11-14T03:57:11.079Z,11.13
2017-11-14T03:59:37.249Z,8.83
2017-11-14T04:02:03.380Z,14.30
2017-11-14T04:04:29.456Z,12.50
2017-11-14T04:06:55.967Z,16.03
2017-11-14T04:09:22.173Z,15.70
2017-11-14T04:11:48.236Z,16.20
2017-11-14T04:14:14.463Z,11.97
2017-11-14T04:16:40.508Z,10.13
2017-11-14T04:19:06.955Z,11.90
2017-11-14T04:21:33.052Z,12.23
2017-11-14T04:23:59.135Z,12.30
2017-11-14T04:26:25.223Z,9.97
2017-11-14T04:28:51.317Z,10.30
2017-11-14T04:31:17.801Z,10.53
2017-11-14T04:33:43.956Z,11.07
2017-11-14T04:36:10.135Z,10.87
2017-11-14T04:38:36.223Z,11.57
2017-11-14T04:41:02.305Z,10.30
2017-11-14T04:43:29.009Z,10.77
2017-11-14T04:45:55.154Z,10.50
2017-11-14T04:48:21.311Z,10.73
2017-11-14T04:50:47.539Z,10.27
2017-11-14T04:53:13.735Z,9.90
2017-11-14T04:55:40.299Z,9.80
2017-11-14T04:58:06.590Z,10.27
2017-11-14T05:00:32.699Z,11.77
2017-11-14T05:02:58.795Z,9.93
2017-11-14T05:05:24.853Z,10.43
2017-11-14T05:07:51.306Z,13.30
2017-11-14T05:10:17.401Z,13.20
2017-11-14T05:12:43.526Z,9.40
2017-11-14T05:15:09.695Z,9.73
2017-11-14T05:17:38.283Z,9.83
2017-11-14T05:20:06.071Z,8.63
2017-11-14T05:22:32.188Z,7.90
2017-11-14T05:24:58.256Z,10.53
2017-11-14T05:27:24.362Z,9.60
2017-11-14T05:29:50.680Z,9.20
2017-11-14T05:32:17.146Z,9.93
2017-11-14T05:34:43.359Z,9.00
2017-11-14T05:37:09.652Z,8.50
2017-11-14T05:39:36.133Z,7.73
2017-11-14T05:42:02.402Z,8.67
2017-11-14T05:44:28.514Z,8.30
2017-11-14T05:46:54.727Z,8.17
2017-11-14T05:49:20.867Z,8.90
2017-11-14T05:51:47.534Z,7.83
2017-11-14T05:54:13.649Z,8.30
2017-11-14T05:56:39.789Z,9.00
2017-11-14T05:59:05.969Z,7.97
2017-11-14T06:01:32.224Z,8.10
2017-11-14T06:03:58.845Z,9.00
2017-11-14T06:06:24.948Z,9.03
2017-11-14T06:08:51.158Z,8.57
2017-11-14T06:11:17.268Z,9.97
2017-11-14T06:13:43.392Z,9.63
2017-11-14T06:16:10.515Z,10.03
2017-11-14T06:18:36.736Z,8.23
2017-11-14T06:21:02.947Z,7.83
2017-11-14T06:23:29.105Z,8.97
2017-11-14T06:25:55.272Z,9.50
2017-11-14T06:28:21.834Z,9.10
2017-11-14T06:30:48.073Z,12.27
2017-11-14T06:33:14.254Z,9.37
2017-11-14T06:35:40.421Z,8.70
2017-11-14T06:38:06.612Z,9.17
2017-11-14T06:40:33.089Z,8.50
2017-11-14T06:42:59.261Z,7.47
2017-11-14T06:45:25.425Z,7.47
2017-11-14T06:47:52.170Z,10.10
2017-11-14T06:50:18.288Z,9.53
2017-11-14T06:52:44.418Z,11.33
2017-11-14T06:55:10.625Z,11.53
2017-11-14T06:57:37.127Z,10.63
2017-11-14T07:00:03.905Z,12.37
2017-11-14T07:02:30.096Z,12.40
2017-11-14T07:04:56.328Z,16.57
2017-11-14T07:07:23.338Z,13.80
2017-11-14T07:09:49.649Z,12.30
2017-11-14T07:12:16.053Z,14.80
2017-11-14T07:14:42.396Z,20.83
2017-11-14T07:17:09.350Z,14.13
2017-11-14T07:19:36.140Z,13.90
2017-11-14T07:22:02.547Z,12.17
2017-11-14T07:24:28.881Z,11.53
2017-11-14T07:26:55.918Z,10.60
2017-11-14T07:29:22.495Z,9.83
2017-11-14T07:31:48.813Z,9.37
2017-11-14T07:34:15.104Z,10.17
2017-11-14T07:36:41.505Z,8.33
2017-11-14T07:39:10.573Z,8.70
2017-11-14T07:41:37.190Z,8.90
2017-11-14T07:44:03.655Z,9.10
2017-11-14T07:46:29.941Z,8.33
2017-11-14T07:48:56.274Z,13.50
2017-11-14T07:51:22.934Z,16.33
2017-11-14T07:53:49.179Z,12.77
2017-11-14T07:56:15.432Z,13.70
2017-11-14T07:58:41.673Z,12.80
2017-11-14T08:01:08.160Z,13.57
2017-11-14T08:03:35.593Z,14.30
2017-11-14T08:06:02.101Z,13.90
2017-11-14T08:08:28.361Z,16.33
2017-11-14T08:10:54.537Z,9.60
2017-11-14T08:13:20.762Z,8.97
2017-11-14T08:15:47.727Z,10.97
2017-11-14T08:18:14.035Z,10.93
2017-11-14T08:20:40.249Z,10.30
2017-11-14T08:23:06.450Z,12.17
2017-11-14T08:25:32.631Z,11.60
2017-11-14T08:27:59.254Z,11.43
2017-11-14T08:30:26.465Z,10.37
2017-11-14T08:32:52.612Z,10.90
2017-11-14T08:35:18.797Z,9.30
2017-11-14T08:37:44.984Z,9.90
2017-11-14T08:40:11.624Z,9.20
2017-11-14T08:42:38.182Z,9.60
2017-11-14T08:45:05.623Z,8.70
2017-11-14T08:47:31.926Z,9.40
2017-11-14T08:49:58.094Z,10.70
2017-11-14T08:52:24.560Z,10.10
2017-11-14T08:54:50.777Z,8.90
2017-11-14T08:57:16.979Z,9.40
2017-11-14T08:59:43.467Z,9.93
2017-11-14T09:02:09.626Z,9.07
2017-11-14T09:04:35.768Z,9.90
2017-11-14T09:07:02.330Z,10.60
2017-11-14T09:09:28.439Z,12.73
2017-11-14T09:11:54.966Z,12.50
2017-11-14T09:14:21.113Z,13.07
2017-11-14T09:16:47.246Z,15.53
2017-11-14T09:19:13.685Z,14.47
2017-11-14T09:21:39.872Z,11.90
2017-11-14T09:24:05.985Z,13.07
2017-11-14T09:26:32.175Z,13.13
2017-11-14T09:28:58.347Z,12.20
2017-11-14T09:31:24.834Z,12.73
2017-11-14T09:33:50.935Z,11.60
2017-11-14T09:36:17.061Z,13.07
2017-11-14T09:38:43.882Z,12.77
2017-11-14T09:41:10.131Z,13.60
2017-11-14T09:43:36.243Z,12.20
2017-11-14T09:46:02.807Z,13.00
2017-11-14T09:48:28.982Z,12.70
2017-11-14T09:50:55.132Z,13.70
2017-11-14T09:53:21.332Z,12.33
2017-11-14T09:55:47.480Z,14.27
2017-11-14T09:58:13.940Z,11.97
2017-11-14T10:00:39.984Z,12.93
2017-11-14T10:03:06.058Z,14.07
2017-11-14T10:05:32.181Z,13.37
2017-11-14T10:07:58.236Z,10.30
2017-11-14T10:10:24.773Z,11.50
2017-11-14T10:12:50.942Z,11.20
2017-11-14T10:15:17.240Z,10.70
2017-11-14T10:17:43.372Z,10.17
2017-11-14T10:20:09.434Z,12.37
2017-11-14T10:22:35.818Z,9.87
2017-11-14T10:25:01.954Z,11.87
2017-11-14T10:27:28.174Z,9.17
2017-11-14T10:29:54.306Z,10.27
2017-11-14T10:32:20.468Z,11.63
2017-11-14T10:34:46.907Z,11.17
2017-11-14T10:37:12.938Z,10.47
2017-11-14T10:39:39.008Z,10.47
2017-11-14T10:42:05.406Z,9.70
2017-11-14T10:44:31.578Z,9.93
2017-11-14T10:46:58.462Z,10.90
2017-11-14T10:49:24.566Z,10.10
2017-11-14T10:51:50.655Z,10.70
2017-11-14T10:54:17.156Z,10.63
2017-11-14T10:56:43.293Z,10.90
2017-11-14T10:59:09.423Z,12.40
2017-11-14T11:01:35.509Z,10.93
2017-11-14T11:04:01.564Z,10.33
2017-11-14T11:06:28.078Z,9.27
2017-11-14T11:08:54.157Z,12.53
2017-11-14T11:11:20.304Z,9.77
2017-11-14T11:13:46.501Z,10.23
2017-11-14T11:16:12.778Z,10.87
2017-11-14T11:18:39.330Z,8.67
2017-11-14T11:21:05.384Z,11.13
2017-11-14T11:23:31.455Z,10.27
2017-11-14T11:25:57.581Z,9.60
2017-11-14T11:28:23.648Z,9.30
2017-11-14T11:30:50.133Z,9.17
2017-11-14T11:33:16.371Z,9.57
2017-11-14T11:35:42.504Z,9.43
2017-11-14T11:38:09.070Z,10.23
2017-11-14T11:40:35.213Z,9.30
2017-11-14T11:43:01.999Z,10.73
2017-11-14T11:45:28.141Z,10.07
2017-11-14T11:47:54.195Z,9.07
2017-11-14T11:50:20.283Z,11.10
2017-11-14T11:52:46.365Z,11.60
2017-11-14T11:55:12.786Z,11.93
2017-11-14T11:57:38.856Z,11.10
2017-11-14T12:00:04.959Z,10.83
2017-11-14T12:02:31.105Z,9.03
2017-11-14T12:04:57.233Z,10.63
2017-11-14T12:07:23.739Z,9.00
2017-11-14T12:09:49.828Z,9.87
2017-11-14T12:12:15.919Z,9.77
2017-11-14T12:14:42.048Z,10.00
2017-11-14T12:17:08.280Z,10.30
2017-11-14T12:19:34.788Z,9.17
2017-11-14T12:22:00.798Z,10.10
2017-11-14T12:24:26.952Z,11.70
2017-11-14T12:26:53.557Z,10.57
2017-11-14T12:29:19.639Z,10.80
2017-11-14T12:31:45.701Z,10.23
2017-11-14T12:34:11.754Z,10.27
2017-11-14T12:36:37.940Z,10.20
2017-11-14T12:39:04.498Z,11.03
2017-11-14T12:41:30.627Z,9.60
2017-11-14T12:43:56.776Z,10.63
2017-11-14T12:46:22.895Z,9.20
2017-11-14T12:48:49.004Z,9.90
2017-11-14T12:51:15.489Z,9.63
2017-11-14T12:53:41.871Z,7.73
2017-11-14T12:56:07.973Z,5.83
2017-11-14T12:58:34.094Z,8.77
2017-11-14T13:01:00.203Z,10.33
2017-11-14T13:03:26.633Z,9.00
2017-11-14T13:05:52.732Z,8.20
2017-11-14T13:08:18.841Z,7.57
2017-11-14T13:10:45.341Z,7.50
2017-11-14T13:13:11.526Z,7.40
2017-11-14T13:15:37.625Z,6.80
2017-11-14T13:18:04.134Z,5.67
2017-11-14T13:20:30.263Z,6.33
2017-11-14T13:22:56.380Z,7.10
2017-11-14T13:25:22.828Z,6.87
2017-11-14T13:27:48.912Z,7.30
2017-11-14T13:30:14.953Z,8.37
2017-11-14T13:32:41.004Z,10.83
2017-11-14T13:35:07.124Z,8.10
2017-11-14T13:37:33.619Z,8.77
2017-11-14T13:39:59.695Z,9.17
2017-11-14T13:42:25.795Z,6.67
2017-11-14T13:44:51.906Z,7.87
2017-11-14T13:47:18.119Z,6.53
2017-11-14T13:49:44.648Z,7.73
2017-11-14T13:52:10.811Z,5.53
2017-11-14T13:54:36.938Z,6.73
2017-11-14T13:57:03.141Z,5.83
2017-11-14T13:59:29.225Z,4.90
2017-11-14T14:01:55.657Z,5.73
2017-11-14T14:04:21.757Z,6.00
2017-11-14T14:06:47.853Z,6.20
2017-11-14T14:09:14.482Z,6.30
2017-11-14T14:11:40.703Z,6.70
2017-11-14T14:14:07.171Z,6.40
2017-11-14T14:16:33.618Z,15.40
2017-11-14T14:18:59.705Z,5.97
2017-11-14T14:21:25.837Z,5.63
2017-11-14T14:23:52.379Z,9.30
2017-11-14T14:26:18.533Z,12.17
2017-11-14T14:28:44.685Z,7.90
2017-11-14T14:31:10.774Z,6.90
2017-11-14T14:33:36.888Z,10.47
2017-11-14T14:36:03.369Z,9.07
2017-11-14T14:38:29.463Z,7.80
2017-11-14T14:40:55.746Z,7.77
2017-11-14T14:43:21.937Z,6.60
2017-11-14T14:45:48.084Z,8.30
2017-11-14T14:48:17.804Z,8.30
2017-11-14T14:50:44.202Z,6.50
2017-11-14T14:53:10.491Z,7.10
2017-11-14T14:55:36.845Z,8.60
2017-11-14T14:58:03.037Z,10.53
2017-11-14T15:00:29.767Z,14.67
2017-11-14T15:02:56.979Z,13.40
2017-11-14T15:05:23.222Z,12.73
2017-11-14T15:07:49.529Z,14.03
2017-11-14T15:10:15.957Z,13.17
2017-11-14T15:12:42.749Z,14.53
2017-11-14T15:15:09.036Z,15.53
2017-11-14T15:17:35.363Z,13.30
2017-11-14T15:20:01.859Z,12.37
2017-11-14T15:22:28.259Z,10.20
2017-11-14T15:24:54.904Z,10.17
2017-11-14T15:27:21.287Z,12.30
2017-11-14T15:29:54.693Z,10.53
2017-11-14T15:32:21.069Z,10.90
2017-11-14T15:34:48.563Z,8.90
2017-11-14T15:37:14.874Z,10.73
2017-11-14T15:39:41.221Z,12.13
2017-11-14T15:42:07.949Z,13.60
2017-11-14T15:44:34.236Z,10.47
2017-11-14T15:47:00.505Z,11.70
2017-11-14T15:49:27.162Z,12.03
2017-11-14T15:51:53.366Z,13.43
2017-11-14T15:54:19.646Z,12.73
2017-11-14T15:56:45.834Z,12.00
2017-11-14T15:59:12.216Z,11.10
2017-11-14T16:01:38.798Z,11.83
2017-11-14T16:04:05.068Z,12.43
2017-11-14T16:06:31.227Z,12.27
2017-11-14T16:08:57.699Z,13.57
2017-11-14T16:11:23.991Z,13.90
2017-11-14T16:13:50.508Z,14.13
2017-11-14T16:16:17.466Z,18.77
2017-11-14T16:18:43.711Z,22.40
2017-11-14T16:21:09.946Z,20.50
2017-11-14T16:23:36.194Z,19.80
2017-11-14T16:26:02.882Z,22.53
2017-11-14T16:28:29.168Z,16.70
2017-11-14T16:30:56.093Z,17.43
2017-11-14T16:33:22.462Z,15.57
2017-11-14T16:35:48.954Z,13.73
2017-11-14T16:38:15.497Z,15.30
2017-11-14T16:40:41.626Z,15.67
2017-11-14T16:43:07.829Z,14.80
2017-11-14T16:48:07.287Z,16.03
2017-11-14T16:50:33.918Z,16.20
2017-11-14T16:53:00.135Z,16.43
2017-11-14T16:55:26.367Z,19.40
2017-11-14T16:57:52.616Z,25.50
2017-11-14T17:00:18.744Z,21.60
2017-11-14T17:02:45.425Z,22.40
2017-11-14T17:05:11.668Z,22.50
2017-11-14T17:07:37.908Z,34.07
2017-11-14T17:10:04.826Z,45.40
2017-11-14T17:12:31.082Z,37.93
2017-11-14T17:14:57.336Z,30.80
2017-11-14T17:17:23.576Z,26.10
2017-11-14T17:19:49.759Z,21.30
2017-11-14T17:22:16.388Z,23.27
2017-11-14T17:24:42.681Z,20.87
2017-11-14T17:27:09.389Z,22.20
2017-11-14T17:29:39.888Z,26.17
2017-11-14T17:32:06.239Z,21.13
2017-11-14T17:34:32.819Z,21.13
2017-11-14T17:36:59.183Z,19.60
2017-11-14T17:39:25.470Z,22.53
2017-11-14T17:41:52.065Z,23.93
2017-11-14T17:44:18.341Z,24.87
2017-11-14T17:46:44.555Z,19.17
2017-11-14T17:49:11.254Z,20.30
2017-11-14T17:51:37.528Z,20.73
2017-11-14T17:54:03.696Z,19.23
2017-11-14T17:56:30.293Z,23.53
2017-11-14T17:58:57.078Z,23.87
2017-11-14T18:01:23.261Z,25.53
2017-11-14T18:03:49.438Z,26.10
2017-11-14T18:06:15.586Z,25.80
2017-11-14T18:08:42.390Z,20.63
2017-11-14T18:11:08.873Z,25.50
2017-11-14T18:13:41.576Z,28.43
2017-11-14T18:16:09.138Z,27.57
2017-11-14T18:18:35.531Z,22.73
2017-11-14T18:21:01.795Z,24.90
2017-11-14T18:23:29.087Z,20.70
2017-11-14T18:25:56.494Z,21.67
2017-11-14T18:28:23.326Z,22.10
2017-11-14T18:30:49.718Z,23.23
2017-11-14T18:33:16.581Z,22.37
2017-11-14T18:35:43.263Z,22.43
2017-11-14T18:38:09.520Z,19.10
2017-11-14T18:40:36.138Z,19.83
2017-11-14T18:43:02.347Z,16.17
2017-11-14T18:45:28.773Z,18.07
2017-11-14T18:47:55.117Z,33.40
2017-11-14T18:50:21.502Z,22.50
2017-11-14T18:52:48.195Z,21.30
2017-11-14T18:55:14.498Z,24.33
2017-11-14T18:57:40.906Z,20.63
2017-11-14T19:00:07.220Z,22.73
2017-11-14T19:02:33.535Z,20.00
2017-11-14T19:05:00.143Z,21.30
2017-11-14T19:07:26.419Z,44.13
2017-11-14T19:09:52.786Z,23.70
2017-11-14T19:12:19.214Z,18.73
2017-11-14T19:14:45.599Z,18.30
2017-11-14T19:17:12.440Z,20.23
2017-11-14T19:19:38.998Z,18.67
2017-11-14T19:22:11.837Z,19.00
2017-11-14T19:24:39.709Z,16.27
2017-11-14T19:27:06.250Z,17.97
2017-11-14T19:29:32.801Z,18.57
2017-11-14T19:31:59.441Z,22.50
2017-11-14T19:34:26.915Z,18.73
2017-11-14T19:36:53.692Z,21.03
2017-11-14T19:39:21.230Z,18.57
2017-11-14T19:41:48.234Z,20.80
2017-11-14T19:44:15.145Z,20.63
2017-11-14T19:46:41.981Z,20.67
2017-11-14T19:49:08.523Z,21.57
2017-11-14T19:51:35.282Z,20.30
2017-11-14T19:54:01.676Z,20.00
2017-11-14T19:56:28.176Z,21.70
2017-11-14T19:58:54.633Z,23.63
2017-11-14T20:01:21.142Z,21.93
2017-11-14T20:03:48.134Z,17.77
2017-11-14T20:16:02.504Z,16.80
2017-11-14T20:18:29.058Z,17.70
2017-11-14T20:20:55.459Z,19.10
2017-11-14T20:23:22.110Z,17.20
2017-11-14T20:25:49.779Z,18.77
2017-11-14T20:28:16.672Z,20.87
2017-11-14T20:30:43.126Z,18.60
2017-11-14T20:33:10.393Z,15.63
2017-11-14T20:35:36.837Z,17.37
2017-11-14T20:38:03.422Z,15.07
2017-11-14T20:40:30.492Z,18.83
2017-11-14T20:42:56.926Z,19.10
2017-11-14T20:45:23.412Z,16.83
2017-11-14T20:47:50.630Z,17.53
2017-11-14T20:50:16.947Z,18.60
2017-11-14T20:52:43.712Z,16.70
2017-11-14T20:55:10.005Z,18.07
2017-11-14T20:57:36.232Z,17.97
2017-11-14T21:00:02.949Z,19.43
2017-11-14T21:02:29.195Z,17.93
2017-11-14T21:04:55.844Z,19.60
2017-11-14T21:07:22.048Z,16.83
2017-11-14T21:09:48.257Z,18.37
2017-11-14T21:12:16.268Z,16.87
2017-11-14T21:14:42.473Z,18.70
2017-11-14T21:17:08.680Z,17.90
2017-11-14T21:19:35.280Z,18.27
2017-11-14T21:22:02.045Z,20.00
2017-11-14T21:24:28.246Z,17.77
2017-11-14T21:26:54.813Z,19.07
2017-11-14T21:29:20.922Z,17.60
2017-11-14T21:31:47.053Z,16.63
2017-11-14T21:34:13.811Z,16.63
2017-11-14T21:36:39.939Z,15.57
2017-11-14T21:39:06.056Z,17.97
2017-11-14T21:41:32.593Z,15.70
2017-11-14T21:44:01.949Z,15.70
2017-11-14T21:46:28.289Z,15.70
2017-11-14T21:48:54.997Z,14.60
2017-11-14T21:51:21.231Z,17.63
2017-11-14T21:53:47.347Z,16.00
2017-11-14T21:56:13.538Z,16.53
2017-11-14T21:58:40.905Z,16.37
2017-11-14T22:01:07.435Z,15.90
2017-11-14T22:03:33.580Z,17.63
2017-11-14T22:06:00.546Z,16.90
2017-11-14T22:08:26.716Z,16.73
2017-11-14T22:10:52.881Z,17.33
2017-11-14T22:13:19.419Z,16.27
2017-11-14T22:15:45.569Z,16.00
2017-11-14T22:18:11.725Z,19.10
2017-11-14T22:20:38.283Z,15.03
2017-11-14T22:23:04.438Z,17.80
2017-11-14T22:25:30.629Z,15.83
2017-11-14T22:27:56.806Z,15.90
2017-11-14T22:30:23.015Z,16.30
2017-11-14T22:32:49.603Z,16.10
2017-11-14T22:35:15.832Z,15.03
2017-11-14T22:37:41.979Z,17.23
2017-11-14T22:40:08.129Z,16.10
2017-11-14T22:42:34.297Z,17.27
2017-11-14T22:45:00.751Z,16.70
2017-11-14T22:47:26.981Z,19.40
2017-11-14T22:49:53.125Z,17.43
2017-11-14T22:52:19.317Z,17.37
2017-11-14T22:54:45.499Z,16.97
2017-11-14T22:57:12.072Z,17.40
2017-11-14T22:59:38.143Z,17.60
2017-11-14T23:02:04.320Z,15.83
2017-11-14T23:04:30.566Z,14.83
2017-11-14T23:06:56.804Z,17.53
2017-11-14T23:09:23.313Z,17.77
2017-11-14T23:11:49.517Z,18.80
2017-11-14T23:14:15.683Z,16.83
2017-11-14T23:16:42.210Z,17.03
2017-11-14T23:19:08.332Z,18.30
2017-11-14T23:21:34.513Z,17.67
2017-11-14T23:24:00.751Z,18.70
2017-11-14T23:26:26.884Z,16.70
2017-11-14T23:28:53.443Z,16.63
2017-11-14T23:31:19.588Z,17.03
2017-11-14T23:33:45.730Z,17.70
2017-11-14T23:36:11.892Z,17.10
2017-11-14T23:38:37.997Z,18.83
2017-11-14T23:41:04.483Z,18.27
2017-11-14T23:43:30.616Z,17.30
2017-11-14T23:45:56.777Z,16.93
2017-11-14T23:48:23.409Z,17.93
2017-11-14T23:50:49.542Z,16.10
2017-11-14T23:53:15.691Z,16.00
2017-11-14T23:55:41.898Z,18.27
2017-11-14T23:58:08.030Z,18.10
